»·PEaware :: N1021M KALW-8W5

N1021M :: KALW-8W5

FLIGHT INFORMATION

Flight Status: Arrived
Operator: Privately registered:
United States
More flights under this callsign
Pilot: Matthew M. (27032)
Aircraft: SOCATA TBM-900
(TBM9)
More flights by this aircraft type
Origin: KALW Walla Walla Regl
United States
Destination: 8W5 Apex Airpark
United States
More flights between these airports :: More routes between these airports
Route:
File this flight plan on PilotEdge
Remarks:
Altitude:
(Current/Filed)
16,500ft
Speed:
(Current/Filed)
300kts
Departed: 10-Sep-20 09:16 AM
Arrived: 10-Sep-20 10:10 AM
Distance/Time
Traveled:
205nm/0:54
Distance/Time
To Go:
Arrived

Flight Plot

Page will automatically refresh every two minutes.

Flight plan parsing failed; only flown route is shown


Map Options




Map Legend


Flown Route
Filed Route
Departure Airport
Arrival Airport
Navaid (VOR, NDB)
Fix

Horizontal Profiles

Position Reports

Time Latitude Longitude Heading Altitude Ground
Speed
10-Sep-20 09:04 46.090782 -118.280391 213 1194ft 0kts
10-Sep-20 09:05 46.090782 -118.280391 213 1194ft 0kts
10-Sep-20 09:06 46.090782 -118.280391 213 1194ft 0kts
10-Sep-20 09:07 46.090782 -118.280391 213 1194ft 0kts
10-Sep-20 09:08 46.090782 -118.280391 213 1194ft 0kts
10-Sep-20 09:09 46.090782 -118.280391 213 1194ft 0kts
10-Sep-20 09:10 46.090726 -118.280676 293 1193ft 7kts
10-Sep-20 09:11 46.092635 -118.281309 31 1189ft 17kts
10-Sep-20 09:12 46.096461 -118.277290 33 1200ft 12kts
10-Sep-20 09:13 46.098321 -118.276081 357 1201ft 0kts
10-Sep-20 09:14 46.098321 -118.276081 357 1201ft 0kts
10-Sep-20 09:15 46.094535 -118.281978 216 1192ft 106kts
10-Sep-20 09:17 46.069871 -118.320168 269 2967ft 166kts
10-Sep-20 09:18 46.081843 -118.385819 284 5101ft 173kts
10-Sep-20 09:19 46.100995 -118.449483 297 7125ft 175kts
10-Sep-20 09:20 46.122415 -118.513214 295 8884ft 180kts
10-Sep-20 09:21 46.146059 -118.577613 304 10643ft 185kts
10-Sep-20 09:22 46.168427 -118.644879 292 12874ft 189kts
10-Sep-20 09:23 46.192891 -118.714657 297 14936ft 202kts
10-Sep-20 09:24 46.218629 -118.788657 298 16516ft 227kts
10-Sep-20 09:25 46.250030 -118.879821 297 16509ft 267kts
10-Sep-20 09:26 46.283778 -118.978192 297 16507ft 275kts
10-Sep-20 09:27 46.318027 -119.078312 297 16509ft 277kts
10-Sep-20 09:28 46.352105 -119.178349 297 16509ft 277kts
10-Sep-20 09:29 46.386304 -119.279129 297 16509ft 278kts
10-Sep-20 09:30 46.420304 -119.379708 297 16509ft 278kts
10-Sep-20 09:31 46.454341 -119.480782 297 16510ft 280kts
10-Sep-20 09:31 46.482867 -119.565801 297 16509ft 281kts
10-Sep-20 09:33 46.522763 -119.685178 297 16508ft 281kts
10-Sep-20 09:34 46.556991 -119.788019 297 16508ft 281kts
10-Sep-20 09:34 46.585347 -119.873532 297 16508ft 281kts
10-Sep-20 09:36 46.624930 -119.993377 297 16508ft 281kts
10-Sep-20 09:36 46.653047 -120.078861 297 16508ft 281kts
10-Sep-20 09:37 46.686919 -120.182186 297 16508ft 282kts
10-Sep-20 09:39 46.726168 -120.302443 297 16508ft 281kts
10-Sep-20 09:39 46.754107 -120.388388 297 16513ft 281kts
10-Sep-20 09:40 46.787683 -120.492058 297 16519ft 280kts
10-Sep-20 09:41 46.821109 -120.595706 297 16525ft 280kts
10-Sep-20 09:42 46.854297 -120.698995 297 16530ft 280kts
10-Sep-20 09:43 46.887397 -120.802444 297 16535ft 280kts
10-Sep-20 09:44 46.920470 -120.906236 297 16535ft 280kts
10-Sep-20 09:45 46.953356 -121.009859 297 16542ft 278kts
10-Sep-20 09:46 46.985722 -121.112249 297 16566ft 276kts
10-Sep-20 09:47 47.017993 -121.214751 297 16552ft 276kts
10-Sep-20 09:48 47.050167 -121.317361 297 16553ft 276kts
10-Sep-20 09:49 47.082202 -121.419951 297 16553ft 276kts
10-Sep-20 09:50 47.114210 -121.522862 297 16556ft 276kts
10-Sep-20 09:51 47.146102 -121.625818 296 16556ft 275kts
10-Sep-20 09:52 47.177890 -121.728885 296 16555ft 275kts
10-Sep-20 09:53 47.209791 -121.832653 295 15931ft 284kts
10-Sep-20 09:54 47.241909 -121.937671 295 14315ft 273kts
10-Sep-20 09:55 47.272380 -122.037666 294 12297ft 263kts
10-Sep-20 09:56 47.302068 -122.135582 294 10290ft 261kts
10-Sep-20 09:57 47.331597 -122.233142 293 8281ft 257kts
10-Sep-20 09:58 47.360126 -122.328029 294 6499ft 241kts
10-Sep-20 09:59 47.386305 -122.415246 294 5366ft 235kts
10-Sep-20 10:00 47.412721 -122.503594 294 4505ft 235kts
10-Sep-20 10:01 47.443284 -122.587374 315 4339ft 236kts
10-Sep-20 10:02 47.487516 -122.653500 315 2832ft 218kts
10-Sep-20 10:03 47.528612 -122.715685 315 1997ft 203kts
10-Sep-20 10:04 47.575370 -122.753902 353 2005ft 198kts
10-Sep-20 10:05 47.628209 -122.737929 16 1767ft 184kts
10-Sep-20 10:06 47.661701 -122.751988 253 1303ft 166kts
10-Sep-20 10:07 47.636946 -122.760664 68 1284ft 102kts
10-Sep-20 10:08 47.646471 -122.735336 13 767ft 77kts
10-Sep-20 10:09 47.658520 -122.732491 95 530ft 3kts
10-Sep-20 10:10 47.658409 -122.732530 278 530ft 0kts
10-Sep-20 10:11 47.658409 -122.732530 278 530ft 0kts
10-Sep-20 10:12 47.658409 -122.732530 278 530ft 0kts
10-Sep-20 10:13 47.658409 -122.732530 278 530ft 0kts
10-Sep-20 10:14 47.658409 -122.732530 278 530ft 0kts
10-Sep-20 10:15 47.658409 -122.732530 278 530ft 0kts
10-Sep-20 10:16 47.658409 -122.732530 278 530ft 0kts
10-Sep-20 10:17 47.658409 -122.732530 278 530ft 0kts
10-Sep-20 10:18 47.658409 -122.732530 278 530ft 0kts
10-Sep-20 10:19 47.658409 -122.732530 278 530ft 0kts
10-Sep-20 10:20 47.658409 -122.732530 278 530ft 0kts
10-Sep-20 10:21 47.658409 -122.732530 278 530ft 0kts
10-Sep-20 10:22 47.658409 -122.732530 278 530ft 0kts
10-Sep-20 10:23 47.658409 -122.732530 278 530ft 0kts

Navigation Log

Ident Type
Flight plan parsing failed, navigation log unavailable